Regina — 3EUK3 — position and weather

sailwx.info

Track history (hours):
 
Tides and Currents Weather Stations Pressure Air Temp Water Temp Dewpoint Dewpoint Depression Visibility Wind Speed Wind Dir Waves Ship Positions

Regina

Last reported at 2015-Jan-26 19:33 UTC. Time now 2015-Feb-01 16:43 UTC.
Position N 01°17' E 104°15'.

Length 180 m; draft 6 m.

Type: Cargo ship. MMSI: 371937000.

Date/timePositionNaut miles runAvg speedWind from/ knotsBaromVisibWave heightAir tempDewpointWater temp
2015-Jan-26 19:33N 01°17' E 104°15'1211.7
2015-Jan-26 18:33N 01°16' E 104°04'4 2.9
2015-Jan-26 17:06N 01°17' E 103°60'0 0.0
2015-Jan-26 16:30N 01°17' E 103°60'0 0.0
2015-Jan-26 15:31N 01°17' E 103°60'0 0.1
2015-Jan-26 14:25N 01°17' E 104°00'0 0.0
2015-Jan-26 13:19N 01°17' E 104°00'0 0.1
2015-Jan-26 12:19N 01°17' E 104°00'0 0.1
2015-Jan-26 11:31N 01°17' E 104°00'0 0.0
2015-Jan-26 10:25N 01°17' E 104°00'0 0.4
2015-Jan-26 09:33N 01°17' E 103°60'2 1.9
2015-Jan-26 08:33N 01°15' E 104°01'5 5.5
2015-Jan-26 07:33N 01°13' E 103°56'8110.9
2015-Jan-26 00:07N 01°41' E 102°40'812.1
2015-Jan-25 23:28N 01°44' E 102°33'  
Track history (hours):
 
Tides and Currents Weather Stations Pressure Air Temp Water Temp Dewpoint Dewpoint Depression Visibility Wind Speed Wind Dir Waves Ship Positions

Regina

Last reported at 2015-Jan-26 19:33 UTC. Time now 2015-Feb-01 16:43 UTC.
Position N 01°17' E 104°15'.

Length 180 m; draft 6 m.

Type: Cargo ship. MMSI: 371937000.

Date/timePositionNaut miles runAvg speedWind from/ knotsBaromVisibWave heightAir tempDewpointWater temp
2015-Jan-26 19:33N 01°17' E 104°15'1211.7
2015-Jan-26 18:33N 01°16' E 104°04'4 2.9
2015-Jan-26 17:06N 01°17' E 103°60'0 0.0
2015-Jan-26 16:30N 01°17' E 103°60'0 0.0
2015-Jan-26 15:31N 01°17' E 103°60'0 0.1
2015-Jan-26 14:25N 01°17' E 104°00'0 0.0
2015-Jan-26 13:19N 01°17' E 104°00'0 0.1
2015-Jan-26 12:19N 01°17' E 104°00'0 0.1
2015-Jan-26 11:31N 01°17' E 104°00'0 0.0
2015-Jan-26 10:25N 01°17' E 104°00'0 0.4
2015-Jan-26 09:33N 01°17' E 103°60'2 1.9
2015-Jan-26 08:33N 01°15' E 104°01'5 5.5
2015-Jan-26 07:33N 01°13' E 103°56'8110.9
2015-Jan-26 00:07N 01°41' E 102°40'812.1
2015-Jan-25 23:28N 01°44' E 102°33'  

Dump ship's entire track history